sensor_id;sensor_type;location;lat;lon;timestamp;P1;durP1;ratioP1;P2;durP2;ratioP2
53781;SDS011;39692;53.114;7.060;2023-04-02T00:06:26;6.57;;;2.33;;
53781;SDS011;39692;53.114;7.060;2023-04-02T00:08:59;2.80;;;1.48;;
53781;SDS011;39692;53.114;7.060;2023-04-02T00:11:32;6.00;;;2.42;;
53781;SDS011;39692;53.114;7.060;2023-04-02T00:14:00;3.95;;;1.70;;
53781;SDS011;39692;53.114;7.060;2023-04-02T00:16:27;4.18;;;2.20;;
53781;SDS011;39692;53.114;7.060;2023-04-02T00:18:54;2.35;;;1.83;;
53781;SDS011;39692;53.114;7.060;2023-04-02T00:21:22;2.80;;;1.70;;
53781;SDS011;39692;53.114;7.060;2023-04-02T00:23:49;3.30;;;1.63;;
53781;SDS011;39692;53.114;7.060;2023-04-02T00:28:54;5.70;;;2.47;;
53781;SDS011;39692;53.114;7.060;2023-04-02T00:31:20;4.40;;;1.80;;
53781;SDS011;39692;53.114;7.060;2023-04-02T00:33:47;5.45;;;2.08;;
53781;SDS011;39692;53.114;7.060;2023-04-02T00:36:13;3.78;;;1.75;;
53781;SDS011;39692;53.114;7.060;2023-04-02T00:38:39;8.75;;;2.38;;
53781;SDS011;39692;53.114;7.060;2023-04-02T00:41:09;5.28;;;1.90;;
53781;SDS011;39692;53.114;7.060;2023-04-02T00:43:40;4.78;;;1.70;;
53781;SDS011;39692;53.114;7.060;2023-04-02T00:46:14;4.32;;;2.38;;
53781;SDS011;39692;53.114;7.060;2023-04-02T00:48:47;4.78;;;2.15;;
53781;SDS011;39692;53.114;7.060;2023-04-02T00:53:41;3.47;;;1.60;;
53781;SDS011;39692;53.114;7.060;2023-04-02T00:56:15;4.03;;;1.25;;
53781;SDS011;39692;53.114;7.060;2023-04-02T00:58:43;2.45;;;1.45;;
53781;SDS011;39692;53.114;7.060;2023-04-02T01:01:16;2.60;;;1.50;;
53781;SDS011;39692;53.114;7.060;2023-04-02T01:03:51;3.13;;;1.67;;
53781;SDS011;39692;53.114;7.060;2023-04-02T01:06:17;3.88;;;2.17;;
53781;SDS011;39692;53.114;7.060;2023-04-02T01:11:21;4.32;;;2.22;;
53781;SDS011;39692;53.114;7.060;2023-04-02T01:19:04;2.83;;;1.45;;
53781;SDS011;39692;53.114;7.060;2023-04-02T01:21:52;4.38;;;1.70;;
53781;SDS011;39692;53.114;7.060;2023-04-02T01:24:22;3.65;;;1.80;;
53781;SDS011;39692;53.114;7.060;2023-04-02T01:26:52;2.90;;;1.38;;
53781;SDS011;39692;53.114;7.060;2023-04-02T01:29:19;2.92;;;1.95;;
53781;SDS011;39692;53.114;7.060;2023-04-02T01:31:46;3.22;;;1.60;;
53781;SDS011;39692;53.114;7.060;2023-04-02T01:34:14;3.33;;;1.50;;
53781;SDS011;39692;53.114;7.060;2023-04-02T01:41:46;3.10;;;1.60;;
53781;SDS011;39692;53.114;7.060;2023-04-02T01:44:21;4.97;;;1.67;;
53781;SDS011;39692;53.114;7.060;2023-04-02T01:46:49;1.65;;;1.02;;
53781;SDS011;39692;53.114;7.060;2023-04-02T01:49:19;3.20;;;1.67;;
53781;SDS011;39692;53.114;7.060;2023-04-02T01:51:50;2.17;;;1.42;;
53781;SDS011;39692;53.114;7.060;2023-04-02T01:54:17;8.45;;;1.88;;
53781;SDS011;39692;53.114;7.060;2023-04-02T01:56:44;1.20;;;0.82;;
53781;SDS011;39692;53.114;7.060;2023-04-02T01:59:11;2.00;;;0.95;;
53781;SDS011;39692;53.114;7.060;2023-04-02T02:01:39;2.13;;;1.08;;
53781;SDS011;39692;53.114;7.060;2023-04-02T02:04:11;10.35;;;1.42;;
53781;SDS011;39692;53.114;7.060;2023-04-02T02:06:40;6.45;;;1.65;;
53781;SDS011;39692;53.114;7.060;2023-04-02T02:09:07;1.73;;;0.88;;
53781;SDS011;39692;53.114;7.060;2023-04-02T02:11:37;2.63;;;1.08;;
53781;SDS011;39692;53.114;7.060;2023-04-02T02:16:59;2.55;;;1.00;;
53781;SDS011;39692;53.114;7.060;2023-04-02T02:19:31;3.05;;;1.15;;
53781;SDS011;39692;53.114;7.060;2023-04-02T02:24:42;2.42;;;1.00;;
53781;SDS011;39692;53.114;7.060;2023-04-02T02:29:41;2.95;;;0.93;;
53781;SDS011;39692;53.114;7.060;2023-04-02T02:32:08;1.35;;;0.85;;
53781;SDS011;39692;53.114;7.060;2023-04-02T02:34:36;2.88;;;1.52;;
53781;SDS011;39692;53.114;7.060;2023-04-02T02:37:11;1.33;;;0.70;;
53781;SDS011;39692;53.114;7.060;2023-04-02T02:39:41;1.17;;;0.70;;
53781;SDS011;39692;53.114;7.060;2023-04-02T02:42:17;2.35;;;1.23;;
53781;SDS011;39692;53.114;7.060;2023-04-02T02:44:48;2.47;;;1.10;;
53781;SDS011;39692;53.114;7.060;2023-04-02T02:47:18;0.60;;;0.45;;
53781;SDS011;39692;53.114;7.060;2023-04-02T02:49:47;1.85;;;0.95;;
53781;SDS011;39692;53.114;7.060;2023-04-02T02:52:18;1.45;;;0.75;;
53781;SDS011;39692;53.114;7.060;2023-04-02T02:54:48;1.50;;;0.63;;
53781;SDS011;39692;53.114;7.060;2023-04-02T02:57:21;1.45;;;0.70;;
53781;SDS011;39692;53.114;7.060;2023-04-02T02:59:48;4.47;;;0.93;;
53781;SDS011;39692;53.114;7.060;2023-04-02T03:02:15;4.68;;;0.88;;
53781;SDS011;39692;53.114;7.060;2023-04-02T03:04:44;1.88;;;1.30;;
53781;SDS011;39692;53.114;7.060;2023-04-02T03:07:11;1.33;;;0.73;;
53781;SDS011;39692;53.114;7.060;2023-04-02T03:14:43;2.83;;;0.80;;
53781;SDS011;39692;53.114;7.060;2023-04-02T03:17:16;0.65;;;0.40;;
53781;SDS011;39692;53.114;7.060;2023-04-02T03:19:44;11.60;;;1.10;;
53781;SDS011;39692;53.114;7.060;2023-04-02T03:22:16;2.17;;;0.88;;
53781;SDS011;39692;53.114;7.060;2023-04-02T03:27:21;1.63;;;0.85;;
53781;SDS011;39692;53.114;7.060;2023-04-02T03:32:37;2.13;;;0.75;;
53781;SDS011;39692;53.114;7.060;2023-04-02T03:35:08;16.20;;;1.05;;
53781;SDS011;39692;53.114;7.060;2023-04-02T03:37:44;4.90;;;0.93;;
53781;SDS011;39692;53.114;7.060;2023-04-02T03:40:16;3.22;;;1.08;;
53781;SDS011;39692;53.114;7.060;2023-04-02T03:42:44;6.70;;;1.48;;
53781;SDS011;39692;53.114;7.060;2023-04-02T03:45:17;2.03;;;1.00;;
53781;SDS011;39692;53.114;7.060;2023-04-02T03:50:19;1.40;;;0.75;;
53781;SDS011;39692;53.114;7.060;2023-04-02T03:52:48;1.50;;;0.77;;
53781;SDS011;39692;53.114;7.060;2023-04-02T03:55:16;6.78;;;1.08;;
53781;SDS011;39692;53.114;7.060;2023-04-02T03:57:45;3.60;;;1.25;;
53781;SDS011;39692;53.114;7.060;2023-04-02T04:00:14;3.40;;;1.10;;
53781;SDS011;39692;53.114;7.060;2023-04-02T04:02:46;4.10;;;0.85;;
53781;SDS011;39692;53.114;7.060;2023-04-02T04:05:49;1.48;;;0.60;;
53781;SDS011;39692;53.114;7.060;2023-04-02T04:08:10;1.00;;;0.50;;
53781;SDS011;39692;53.114;7.060;2023-04-02T04:10:38;1.05;;;0.60;;
53781;SDS011;39692;53.114;7.060;2023-04-02T04:13:07;4.30;;;0.98;;
53781;SDS011;39692;53.114;7.060;2023-04-02T04:15:35;0.63;;;0.52;;
53781;SDS011;39692;53.114;7.060;2023-04-02T04:23:10;3.65;;;1.13;;
53781;SDS011;39692;53.114;7.060;2023-04-02T04:25:40;5.15;;;1.85;;
53781;SDS011;39692;53.114;7.060;2023-04-02T04:28:12;1.23;;;1.00;;
53781;SDS011;39692;53.114;7.060;2023-04-02T04:33:29;2.92;;;0.73;;
53781;SDS011;39692;53.114;7.060;2023-04-02T04:36:03;8.32;;;1.15;;
53781;SDS011;39692;53.114;7.060;2023-04-02T04:38:31;2.25;;;0.73;;
53781;SDS011;39692;53.114;7.060;2023-04-02T04:41:20;2.15;;;0.85;;
53781;SDS011;39692;53.114;7.060;2023-04-02T04:46:24;2.53;;;0.88;;
53781;SDS011;39692;53.114;7.060;2023-04-02T04:49:26;0.95;;;0.50;;
53781;SDS011;39692;53.114;7.060;2023-04-02T04:51:45;1.95;;;0.88;;
53781;SDS011;39692;53.114;7.060;2023-04-02T04:54:13;1.45;;;0.85;;
53781;SDS011;39692;53.114;7.060;2023-04-02T04:56:39;2.47;;;0.88;;
53781;SDS011;39692;53.114;7.060;2023-04-02T04:59:26;1.65;;;0.80;;
53781;SDS011;39692;53.114;7.060;2023-04-02T05:09:35;2.55;;;1.38;;
53781;SDS011;39692;53.114;7.060;2023-04-02T05:19:42;1.90;;;1.02;;
53781;SDS011;39692;53.114;7.060;2023-04-02T05:29:55;1.63;;;0.65;;
53781;SDS011;39692;53.114;7.060;2023-04-02T05:32:24;2.08;;;0.77;;
53781;SDS011;39692;53.114;7.060;2023-04-02T05:34:52;1.67;;;0.50;;
53781;SDS011;39692;53.114;7.060;2023-04-02T05:37:19;1.83;;;0.70;;
53781;SDS011;39692;53.114;7.060;2023-04-02T05:39:51;0.82;;;0.50;;
53781;SDS011;39692;53.114;7.060;2023-04-02T05:42:19;1.15;;;0.57;;
53781;SDS011;39692;53.114;7.060;2023-04-02T05:44:54;8.27;;;1.42;;
53781;SDS011;39692;53.114;7.060;2023-04-02T05:47:24;3.80;;;0.85;;
53781;SDS011;39692;53.114;7.060;2023-04-02T05:52:22;2.85;;;0.90;;
53781;SDS011;39692;53.114;7.060;2023-04-02T05:55:02;3.65;;;1.33;;
53781;SDS011;39692;53.114;7.060;2023-04-02T05:57:32;2.97;;;0.93;;
53781;SDS011;39692;53.114;7.060;2023-04-02T06:00:03;3.40;;;0.75;;
53781;SDS011;39692;53.114;7.060;2023-04-02T06:02:31;2.55;;;0.98;;
53781;SDS011;39692;53.114;7.060;2023-04-02T06:10:34;2.67;;;0.85;;
53781;SDS011;39692;53.114;7.060;2023-04-02T06:13:04;2.78;;;0.73;;
53781;SDS011;39692;53.114;7.060;2023-04-02T06:15:31;2.45;;;0.77;;
53781;SDS011;39692;53.114;7.060;2023-04-02T06:17:59;2.97;;;0.98;;
53781;SDS011;39692;53.114;7.060;2023-04-02T06:20:26;2.42;;;0.85;;
53781;SDS011;39692;53.114;7.060;2023-04-02T06:22:59;2.17;;;0.80;;
53781;SDS011;39692;53.114;7.060;2023-04-02T06:25:28;1.58;;;0.80;;
53781;SDS011;39692;53.114;7.060;2023-04-02T06:27:56;2.70;;;0.70;;
53781;SDS011;39692;53.114;7.060;2023-04-02T06:30:32;4.30;;;0.90;;
53781;SDS011;39692;53.114;7.060;2023-04-02T06:33:00;4.05;;;0.80;;
53781;SDS011;39692;53.114;7.060;2023-04-02T06:35:26;1.38;;;0.65;;
53781;SDS011;39692;53.114;7.060;2023-04-02T06:37:52;5.30;;;0.80;;
53781;SDS011;39692;53.114;7.060;2023-04-02T06:43:00;3.30;;;0.95;;
53781;SDS011;39692;53.114;7.060;2023-04-02T06:45:31;2.90;;;0.98;;
53781;SDS011;39692;53.114;7.060;2023-04-02T06:47:59;9.30;;;0.80;;
53781;SDS011;39692;53.114;7.060;2023-04-02T06:53:17;2.72;;;1.13;;
53781;SDS011;39692;53.114;7.060;2023-04-02T06:56:04;3.40;;;1.10;;
53781;SDS011;39692;53.114;7.060;2023-04-02T06:58:31;2.17;;;1.08;;
53781;SDS011;39692;53.114;7.060;2023-04-02T07:00:57;6.72;;;0.93;;
53781;SDS011;39692;53.114;7.060;2023-04-02T07:03:29;4.35;;;1.33;;
53781;SDS011;39692;53.114;7.060;2023-04-02T07:05:56;6.45;;;1.40;;
53781;SDS011;39692;53.114;7.060;2023-04-02T07:10:49;3.35;;;1.15;;
53781;SDS011;39692;53.114;7.060;2023-04-02T07:13:19;3.33;;;1.08;;
53781;SDS011;39692;53.114;7.060;2023-04-02T07:15:46;3.45;;;0.95;;
53781;SDS011;39692;53.114;7.060;2023-04-02T07:18:25;2.78;;;0.90;;
53781;SDS011;39692;53.114;7.060;2023-04-02T07:20:51;1.98;;;0.70;;
53781;SDS011;39692;53.114;7.060;2023-04-02T07:23:17;7.45;;;1.75;;
53781;SDS011;39692;53.114;7.060;2023-04-02T07:25:45;1.90;;;0.80;;
53781;SDS011;39692;53.114;7.060;2023-04-02T07:28:11;2.05;;;0.90;;
53781;SDS011;39692;53.114;7.060;2023-04-02T07:30:39;4.97;;;0.95;;
53781;SDS011;39692;53.114;7.060;2023-04-02T07:33:05;2.22;;;0.98;;
53781;SDS011;39692;53.114;7.060;2023-04-02T07:35:31;3.67;;;1.15;;
53781;SDS011;39692;53.114;7.060;2023-04-02T07:37:58;4.30;;;1.20;;
53781;SDS011;39692;53.114;7.060;2023-04-02T07:40:24;3.35;;;0.93;;
53781;SDS011;39692;53.114;7.060;2023-04-02T07:42:50;3.72;;;1.30;;
53781;SDS011;39692;53.114;7.060;2023-04-02T07:45:16;4.93;;;0.88;;
53781;SDS011;39692;53.114;7.060;2023-04-02T07:47:43;3.83;;;0.82;;
53781;SDS011;39692;53.114;7.060;2023-04-02T07:50:09;5.25;;;0.90;;
53781;SDS011;39692;53.114;7.060;2023-04-02T07:52:39;3.83;;;0.73;;
53781;SDS011;39692;53.114;7.060;2023-04-02T07:55:07;3.63;;;0.90;;
53781;SDS011;39692;53.114;7.060;2023-04-02T07:57:36;4.20;;;0.80;;
53781;SDS011;39692;53.114;7.060;2023-04-02T08:00:03;4.10;;;0.90;;
53781;SDS011;39692;53.114;7.060;2023-04-02T08:02:30;3.28;;;0.80;;
53781;SDS011;39692;53.114;7.060;2023-04-02T08:04:56;3.17;;;1.08;;
53781;SDS011;39692;53.114;7.060;2023-04-02T08:07:22;2.72;;;0.85;;
53781;SDS011;39692;53.114;7.060;2023-04-02T08:09:48;4.00;;;0.80;;
53781;SDS011;39692;53.114;7.060;2023-04-02T08:12:14;3.30;;;1.15;;
53781;SDS011;39692;53.114;7.060;2023-04-02T08:14:40;2.40;;;0.90;;
53781;SDS011;39692;53.114;7.060;2023-04-02T08:17:06;5.25;;;1.48;;
53781;SDS011;39692;53.114;7.060;2023-04-02T08:19:32;2.88;;;1.30;;
53781;SDS011;39692;53.114;7.060;2023-04-02T08:21:59;4.90;;;1.55;;
53781;SDS011;39692;53.114;7.060;2023-04-02T08:24:25;3.05;;;1.17;;
53781;SDS011;39692;53.114;7.060;2023-04-02T08:26:51;3.40;;;1.23;;
53781;SDS011;39692;53.114;7.060;2023-04-02T08:29:18;3.17;;;1.77;;
53781;SDS011;39692;53.114;7.060;2023-04-02T08:31:44;3.67;;;1.13;;
53781;SDS011;39692;53.114;7.060;2023-04-02T08:34:11;2.05;;;0.95;;
53781;SDS011;39692;53.114;7.060;2023-04-02T08:36:38;2.25;;;0.80;;
53781;SDS011;39692;53.114;7.060;2023-04-02T08:39:05;3.15;;;0.88;;
53781;SDS011;39692;53.114;7.060;2023-04-02T08:41:43;4.28;;;0.88;;
53781;SDS011;39692;53.114;7.060;2023-04-02T08:46:47;2.55;;;0.88;;
53781;SDS011;39692;53.114;7.060;2023-04-02T08:49:15;2.47;;;0.90;;
53781;SDS011;39692;53.114;7.060;2023-04-02T08:51:42;2.78;;;1.00;;
53781;SDS011;39692;53.114;7.060;2023-04-02T08:54:28;4.20;;;1.40;;
53781;SDS011;39692;53.114;7.060;2023-04-02T08:59:32;3.10;;;1.35;;
53781;SDS011;39692;53.114;7.060;2023-04-02T09:02:10;5.28;;;1.35;;
53781;SDS011;39692;53.114;7.060;2023-04-02T09:04:43;3.60;;;1.23;;
53781;SDS011;39692;53.114;7.060;2023-04-02T09:07:13;5.07;;;1.25;;
53781;SDS011;39692;53.114;7.060;2023-04-02T09:09:40;3.65;;;1.20;;
53781;SDS011;39692;53.114;7.060;2023-04-02T09:12:14;5.22;;;1.75;;
53781;SDS011;39692;53.114;7.060;2023-04-02T09:14:42;4.63;;;1.50;;
53781;SDS011;39692;53.114;7.060;2023-04-02T09:17:19;3.67;;;1.20;;
53781;SDS011;39692;53.114;7.060;2023-04-02T09:19:49;4.88;;;1.40;;
53781;SDS011;39692;53.114;7.060;2023-04-02T09:22:18;3.45;;;1.05;;
53781;SDS011;39692;53.114;7.060;2023-04-02T09:24:49;4.70;;;1.23;;
53781;SDS011;39692;53.114;7.060;2023-04-02T09:27:20;3.58;;;1.40;;
53781;SDS011;39692;53.114;7.060;2023-04-02T09:29:48;3.97;;;1.35;;
53781;SDS011;39692;53.114;7.060;2023-04-02T09:34:43;4.22;;;1.20;;
53781;SDS011;39692;53.114;7.060;2023-04-02T09:37:19;3.42;;;1.00;;
53781;SDS011;39692;53.114;7.060;2023-04-02T09:39:49;4.13;;;1.40;;
53781;SDS011;39692;53.114;7.060;2023-04-02T09:42:34;3.45;;;1.10;;
53781;SDS011;39692;53.114;7.060;2023-04-02T09:47:37;2.45;;;0.98;;
53781;SDS011;39692;53.114;7.060;2023-04-02T09:50:21;3.67;;;1.40;;
53781;SDS011;39692;53.114;7.060;2023-04-02T09:52:49;3.78;;;1.27;;
53781;SDS011;39692;53.114;7.060;2023-04-02T09:55:17;3.50;;;1.20;;
53781;SDS011;39692;53.114;7.060;2023-04-02T09:57:44;4.40;;;1.08;;
53781;SDS011;39692;53.114;7.060;2023-04-02T10:02:37;4.15;;;1.40;;
53781;SDS011;39692;53.114;7.060;2023-04-02T10:05:04;2.47;;;1.20;;
53781;SDS011;39692;53.114;7.060;2023-04-02T10:09:59;2.22;;;1.17;;
53781;SDS011;39692;53.114;7.060;2023-04-02T10:12:25;4.43;;;1.48;;
53781;SDS011;39692;53.114;7.060;2023-04-02T10:14:54;4.60;;;1.50;;
53781;SDS011;39692;53.114;7.060;2023-04-02T10:17:26;3.28;;;1.05;;
53781;SDS011;39692;53.114;7.060;2023-04-02T10:19:55;3.42;;;1.35;;
53781;SDS011;39692;53.114;7.060;2023-04-02T10:22:22;4.00;;;1.40;;
53781;SDS011;39692;53.114;7.060;2023-04-02T10:24:48;2.92;;;0.95;;
53781;SDS011;39692;53.114;7.060;2023-04-02T10:40:18;2.20;;;0.98;;
53781;SDS011;39692;53.114;7.060;2023-04-02T10:48:08;2.72;;;1.10;;
53781;SDS011;39692;53.114;7.060;2023-04-02T10:50:42;3.25;;;1.13;;
53781;SDS011;39692;53.114;7.060;2023-04-02T10:55:39;2.30;;;1.00;;
53781;SDS011;39692;53.114;7.060;2023-04-02T10:58:12;4.65;;;1.10;;
53781;SDS011;39692;53.114;7.060;2023-04-02T11:00:43;2.28;;;1.02;;
53781;SDS011;39692;53.114;7.060;2023-04-02T11:03:17;3.30;;;1.10;;
53781;SDS011;39692;53.114;7.060;2023-04-02T11:05:49;3.20;;;1.20;;
53781;SDS011;39692;53.114;7.060;2023-04-02T11:10:45;2.83;;;1.20;;
53781;SDS011;39692;53.114;7.060;2023-04-02T11:15:48;2.92;;;0.95;;
53781;SDS011;39692;53.114;7.060;2023-04-02T11:18:30;3.78;;;1.00;;
53781;SDS011;39692;53.114;7.060;2023-04-02T11:21:42;3.08;;;1.30;;
53781;SDS011;39692;53.114;7.060;2023-04-02T11:26:40;4.63;;;1.17;;
53781;SDS011;39692;53.114;7.060;2023-04-02T11:31:43;3.30;;;1.00;;
53781;SDS011;39692;53.114;7.060;2023-04-02T11:34:14;3.92;;;1.20;;
53781;SDS011;39692;53.114;7.060;2023-04-02T11:42:02;2.65;;;0.90;;
53781;SDS011;39692;53.114;7.060;2023-04-02T11:44:29;3.35;;;1.10;;
53781;SDS011;39692;53.114;7.060;2023-04-02T11:47:28;1.58;;;0.73;;
53781;SDS011;39692;53.114;7.060;2023-04-02T11:52:26;3.45;;;1.35;;
53781;SDS011;39692;53.114;7.060;2023-04-02T11:57:42;2.78;;;0.90;;
53781;SDS011;39692;53.114;7.060;2023-04-02T12:05:41;3.10;;;1.05;;
53781;SDS011;39692;53.114;7.060;2023-04-02T12:08:19;2.85;;;0.98;;
53781;SDS011;39692;53.114;7.060;2023-04-02T12:14:05;2.17;;;0.90;;
53781;SDS011;39692;53.114;7.060;2023-04-02T12:16:08;2.63;;;0.90;;
53781;SDS011;39692;53.114;7.060;2023-04-02T12:18:35;1.70;;;0.90;;
53781;SDS011;39692;53.114;7.060;2023-04-02T12:21:06;1.80;;;0.80;;
53781;SDS011;39692;53.114;7.060;2023-04-02T12:23:34;3.88;;;0.90;;
53781;SDS011;39692;53.114;7.060;2023-04-02T12:28:28;3.38;;;1.08;;
53781;SDS011;39692;53.114;7.060;2023-04-02T12:33:42;2.75;;;0.98;;
53781;SDS011;39692;53.114;7.060;2023-04-02T12:38:54;3.97;;;1.13;;
53781;SDS011;39692;53.114;7.060;2023-04-02T12:43:57;2.35;;;0.80;;
53781;SDS011;39692;53.114;7.060;2023-04-02T12:46:24;4.43;;;1.23;;
53781;SDS011;39692;53.114;7.060;2023-04-02T12:48:53;2.38;;;0.70;;
53781;SDS011;39692;53.114;7.060;2023-04-02T12:51:20;2.10;;;0.73;;
53781;SDS011;39692;53.114;7.060;2023-04-02T12:53:49;4.78;;;0.90;;
53781;SDS011;39692;53.114;7.060;2023-04-02T12:56:20;2.50;;;0.65;;
53781;SDS011;39692;53.114;7.060;2023-04-02T12:58:56;2.42;;;1.00;;
53781;SDS011;39692;53.114;7.060;2023-04-02T13:01:23;2.42;;;0.80;;
53781;SDS011;39692;53.114;7.060;2023-04-02T13:04:10;1.77;;;0.98;;
53781;SDS011;39692;53.114;7.060;2023-04-02T13:06:37;1.98;;;0.77;;
53781;SDS011;39692;53.114;7.060;2023-04-02T13:09:04;1.70;;;0.75;;
53781;SDS011;39692;53.114;7.060;2023-04-02T13:11:37;3.25;;;0.70;;
53781;SDS011;39692;53.114;7.060;2023-04-02T13:14:04;2.33;;;0.80;;
53781;SDS011;39692;53.114;7.060;2023-04-02T13:16:35;3.05;;;1.02;;
53781;SDS011;39692;53.114;7.060;2023-04-02T13:19:09;1.83;;;0.70;;
53781;SDS011;39692;53.114;7.060;2023-04-02T13:21:35;2.10;;;0.80;;
53781;SDS011;39692;53.114;7.060;2023-04-02T13:24:02;1.63;;;0.80;;
53781;SDS011;39692;53.114;7.060;2023-04-02T13:26:28;1.63;;;0.60;;
53781;SDS011;39692;53.114;7.060;2023-04-02T13:34:05;1.63;;;0.63;;
53781;SDS011;39692;53.114;7.060;2023-04-02T13:36:31;1.35;;;0.52;;
53781;SDS011;39692;53.114;7.060;2023-04-02T13:38:57;2.63;;;0.95;;
53781;SDS011;39692;53.114;7.060;2023-04-02T13:41:24;2.05;;;0.65;;
53781;SDS011;39692;53.114;7.060;2023-04-02T13:43:52;3.88;;;1.00;;
53781;SDS011;39692;53.114;7.060;2023-04-02T13:46:23;0.90;;;0.40;;
53781;SDS011;39692;53.114;7.060;2023-04-02T13:48:50;1.73;;;0.55;;
53781;SDS011;39692;53.114;7.060;2023-04-02T13:51:17;1.45;;;0.50;;
53781;SDS011;39692;53.114;7.060;2023-04-02T13:53:47;2.10;;;0.50;;
53781;SDS011;39692;53.114;7.060;2023-04-02T13:56:15;2.40;;;0.60;;
53781;SDS011;39692;53.114;7.060;2023-04-02T13:58:44;0.85;;;0.40;;
53781;SDS011;39692;53.114;7.060;2023-04-02T14:01:10;1.15;;;0.50;;
53781;SDS011;39692;53.114;7.060;2023-04-02T14:03:37;1.38;;;0.57;;
53781;SDS011;39692;53.114;7.060;2023-04-02T14:06:07;1.38;;;0.50;;
53781;SDS011;39692;53.114;7.060;2023-04-02T14:08:49;1.10;;;0.40;;
53781;SDS011;39692;53.114;7.060;2023-04-02T14:11:26;1.25;;;0.70;;
53781;SDS011;39692;53.114;7.060;2023-04-02T14:14:00;1.38;;;0.60;;
53781;SDS011;39692;53.114;7.060;2023-04-02T14:26:43;1.38;;;0.60;;
53781;SDS011;39692;53.114;7.060;2023-04-02T14:32:13;1.10;;;0.50;;
53781;SDS011;39692;53.114;7.060;2023-04-02T14:42:33;2.13;;;0.70;;
53781;SDS011;39692;53.114;7.060;2023-04-02T14:45:01;2.45;;;0.70;;
53781;SDS011;39692;53.114;7.060;2023-04-02T14:47:30;2.28;;;0.70;;
53781;SDS011;39692;53.114;7.060;2023-04-02T14:50:04;4.20;;;0.77;;
53781;SDS011;39692;53.114;7.060;2023-04-02T14:52:32;1.23;;;0.50;;
53781;SDS011;39692;53.114;7.060;2023-04-02T14:54:59;1.65;;;0.70;;
53781;SDS011;39692;53.114;7.060;2023-04-02T14:57:30;1.85;;;0.68;;
53781;SDS011;39692;53.114;7.060;2023-04-02T14:59:59;1.73;;;0.73;;
53781;SDS011;39692;53.114;7.060;2023-04-02T15:02:29;1.25;;;0.50;;
53781;SDS011;39692;53.114;7.060;2023-04-02T15:10:23;1.55;;;0.65;;
53781;SDS011;39692;53.114;7.060;2023-04-02T15:12:51;1.17;;;0.50;;
53781;SDS011;39692;53.114;7.060;2023-04-02T15:15:20;1.73;;;0.60;;
53781;SDS011;39692;53.114;7.060;2023-04-02T15:17:48;1.00;;;0.40;;
53781;SDS011;39692;53.114;7.060;2023-04-02T15:20:15;2.78;;;0.70;;
53781;SDS011;39692;53.114;7.060;2023-04-02T15:23:00;1.38;;;0.52;;
53781;SDS011;39692;53.114;7.060;2023-04-02T15:25:46;7.72;;;0.85;;
53781;SDS011;39692;53.114;7.060;2023-04-02T15:28:27;2.15;;;0.68;;
53781;SDS011;39692;53.114;7.060;2023-04-02T15:30:55;1.67;;;0.55;;
53781;SDS011;39692;53.114;7.060;2023-04-02T15:38:43;3.17;;;0.63;;
53781;SDS011;39692;53.114;7.060;2023-04-02T15:41:21;1.48;;;0.52;;
53781;SDS011;39692;53.114;7.060;2023-04-02T15:46:53;1.90;;;0.82;;
53781;SDS011;39692;53.114;7.060;2023-04-02T15:57:22;1.58;;;0.60;;
53781;SDS011;39692;53.114;7.060;2023-04-02T16:04:56;2.00;;;0.63;;
53781;SDS011;39692;53.114;7.060;2023-04-02T16:07:36;1.10;;;0.50;;
53781;SDS011;39692;53.114;7.060;2023-04-02T16:10:11;0.60;;;0.40;;
53781;SDS011;39692;53.114;7.060;2023-04-02T16:12:40;2.30;;;0.50;;
53781;SDS011;39692;53.114;7.060;2023-04-02T16:15:13;1.55;;;0.50;;
53781;SDS011;39692;53.114;7.060;2023-04-02T16:17:41;1.25;;;0.50;;
53781;SDS011;39692;53.114;7.060;2023-04-02T16:20:18;1.70;;;0.38;;
53781;SDS011;39692;53.114;7.060;2023-04-02T16:22:49;0.88;;;0.63;;
53781;SDS011;39692;53.114;7.060;2023-04-02T16:25:19;1.00;;;0.45;;
53781;SDS011;39692;53.114;7.060;2023-04-02T16:28:12;1.92;;;0.75;;
53781;SDS011;39692;53.114;7.060;2023-04-02T16:30:49;0.77;;;0.38;;
53781;SDS011;39692;53.114;7.060;2023-04-02T16:33:22;1.65;;;0.40;;
53781;SDS011;39692;53.114;7.060;2023-04-02T16:36:01;3.53;;;0.70;;
53781;SDS011;39692;53.114;7.060;2023-04-02T16:49:06;1.05;;;0.60;;
53781;SDS011;39692;53.114;7.060;2023-04-02T16:54:18;0.70;;;0.40;;
53781;SDS011;39692;53.114;7.060;2023-04-02T16:59:49;0.85;;;0.43;;
53781;SDS011;39692;53.114;7.060;2023-04-02T17:02:22;2.88;;;0.50;;
53781;SDS011;39692;53.114;7.060;2023-04-02T17:08:02;1.33;;;0.73;;
53781;SDS011;39692;53.114;7.060;2023-04-02T17:13:01;1.02;;;0.40;;
53781;SDS011;39692;53.114;7.060;2023-04-02T17:15:31;1.85;;;0.82;;
53781;SDS011;39692;53.114;7.060;2023-04-02T17:17:59;1.85;;;0.68;;
53781;SDS011;39692;53.114;7.060;2023-04-02T17:20:25;6.68;;;0.70;;
53781;SDS011;39692;53.114;7.060;2023-04-02T17:22:52;2.28;;;0.60;;
53781;SDS011;39692;53.114;7.060;2023-04-02T17:25:23;2.00;;;0.57;;
53781;SDS011;39692;53.114;7.060;2023-04-02T17:27:52;1.65;;;0.47;;
53781;SDS011;39692;53.114;7.060;2023-04-02T17:32:48;0.60;;;0.30;;
53781;SDS011;39692;53.114;7.060;2023-04-02T17:48:02;1.15;;;0.68;;
53781;SDS011;39692;53.114;7.060;2023-04-02T18:01:31;2.60;;;0.98;;
53781;SDS011;39692;53.114;7.060;2023-04-02T18:06:37;1.45;;;0.63;;
53781;SDS011;39692;53.114;7.060;2023-04-02T18:11:51;2.90;;;0.70;;
53781;SDS011;39692;53.114;7.060;2023-04-02T18:16:51;1.27;;;0.50;;
53781;SDS011;39692;53.114;7.060;2023-04-02T18:22:20;4.55;;;0.75;;
53781;SDS011;39692;53.114;7.060;2023-04-02T18:27:41;1.35;;;0.75;;
53781;SDS011;39692;53.114;7.060;2023-04-02T18:30:16;1.45;;;0.90;;
53781;SDS011;39692;53.114;7.060;2023-04-02T18:32:59;1.35;;;0.52;;
53781;SDS011;39692;53.114;7.060;2023-04-02T18:35:31;1.00;;;0.60;;
53781;SDS011;39692;53.114;7.060;2023-04-02T18:50:53;1.33;;;0.75;;
53781;SDS011;39692;53.114;7.060;2023-04-02T18:53:20;1.48;;;0.80;;
53781;SDS011;39692;53.114;7.060;2023-04-02T18:56:02;2.38;;;0.95;;
53781;SDS011;39692;53.114;7.060;2023-04-02T18:58:38;2.78;;;1.25;;
53781;SDS011;39692;53.114;7.060;2023-04-02T19:01:05;2.17;;;1.15;;
53781;SDS011;39692;53.114;7.060;2023-04-02T19:06:11;1.95;;;0.82;;
53781;SDS011;39692;53.114;7.060;2023-04-02T19:08:40;2.05;;;0.73;;
53781;SDS011;39692;53.114;7.060;2023-04-02T19:11:08;1.52;;;0.82;;
53781;SDS011;39692;53.114;7.060;2023-04-02T19:13:36;1.55;;;0.60;;
53781;SDS011;39692;53.114;7.060;2023-04-02T19:26:20;2.10;;;1.02;;
53781;SDS011;39692;53.114;7.060;2023-04-02T19:28:55;1.27;;;0.70;;
53781;SDS011;39692;53.114;7.060;2023-04-02T19:31:43;0.93;;;0.60;;
53781;SDS011;39692;53.114;7.060;2023-04-02T19:37:42;2.63;;;0.90;;
53781;SDS011;39692;53.114;7.060;2023-04-02T19:42:17;2.28;;;0.82;;
53781;SDS011;39692;53.114;7.060;2023-04-02T19:44:45;1.08;;;0.50;;
53781;SDS011;39692;53.114;7.060;2023-04-02T19:47:13;0.82;;;0.50;;
53781;SDS011;39692;53.114;7.060;2023-04-02T19:49:40;1.85;;;0.63;;
53781;SDS011;39692;53.114;7.060;2023-04-02T19:52:07;1.75;;;0.80;;
53781;SDS011;39692;53.114;7.060;2023-04-02T19:54:33;1.23;;;0.60;;
53781;SDS011;39692;53.114;7.060;2023-04-02T19:56:59;1.75;;;0.85;;
53781;SDS011;39692;53.114;7.060;2023-04-02T19:59:25;1.42;;;0.73;;
53781;SDS011;39692;53.114;7.060;2023-04-02T20:01:51;1.48;;;0.88;;
53781;SDS011;39692;53.114;7.060;2023-04-02T20:04:18;2.78;;;0.75;;
53781;SDS011;39692;53.114;7.060;2023-04-02T20:06:44;1.92;;;0.88;;
53781;SDS011;39692;53.114;7.060;2023-04-02T20:09:10;1.85;;;1.08;;
53781;SDS011;39692;53.114;7.060;2023-04-02T20:11:36;2.20;;;0.75;;
53781;SDS011;39692;53.114;7.060;2023-04-02T20:14:03;2.40;;;0.93;;
53781;SDS011;39692;53.114;7.060;2023-04-02T20:16:30;2.80;;;0.98;;
53781;SDS011;39692;53.114;7.060;2023-04-02T20:19:00;2.97;;;1.02;;
53781;SDS011;39692;53.114;7.060;2023-04-02T20:21:26;1.92;;;0.63;;